Time;durP1;ratioP1;P1;durP2;ratioP2;P2;SDS_P1;SDS_P2;PMS_P1;PMS_P2;Temp;Humidity;BMP_temperature;BMP_pressure;BME280_temperature;BME280_humidity;BME280_pressure;Samples;Min_cycle;Max_cycle;Signal;HPM_P1;HPM_P2
2022/04/15 00:00:08;;;;;;;30.50;11.20;;;12.60;90.60;;;;;;5073267;28;20522;-73
2022/04/15 00:02:36;;;;;;;38.23;11.47;;;;;;;;;;5071936;28;20918;-75
2022/04/15 00:05:29;;;;;;;36.17;12.07;;;12.60;90.50;;;;;;5071156;28;21229;-75
2022/04/15 00:07:51;;;;;;;38.27;11.40;;;12.60;90.70;;;;;;5069812;28;20479;-75
2022/04/15 00:10:19;;;;;;;66.67;13.63;;;;;;;;;;5069411;28;21169;-74
2022/04/15 00:12:49;;;;;;;36.97;9.87;;;12.40;90.40;;;;;;5071468;28;20907;-74
2022/04/15 00:15:18;;;;;;;48.53;14.83;;;16.40;92.30;;;;;;5071442;28;20966;-75
2022/04/15 00:17:45;;;;;;;41.03;8.90;;;;;;;;;;5071664;28;20488;-74
2022/04/15 00:20:12;;;;;;;69.97;13.83;;;12.40;90.70;;;;;;5068916;28;20495;-76
2022/04/15 00:22:39;;;;;;;64.87;12.17;;;;;;;;;;5072810;28;20476;-76
2022/04/15 00:25:07;;;;;;;42.70;10.17;;;;;;;;;;5072076;28;20987;-73
2022/04/15 00:27:34;;;;;;;66.93;11.33;;;;;;;;;;5073327;28;20489;-74
2022/04/15 00:30:02;;;;;;;27.63;9.43;;;12.30;90.40;;;;;;5069299;28;20510;-74
2022/04/15 00:32:30;;;;;;;43.90;10.73;;;;;;;;;;5072104;28;20471;-73
2022/04/15 00:34:57;;;;;;;54.93;11.20;;;;;;;;;;5068162;28;20490;-74
2022/04/15 00:37:24;;;;;;;48.70;10.10;;;;;;;;;;5070306;28;20475;-77
2022/04/15 00:39:51;;;;;;;40.97;9.00;;;;;;;;;;5070104;28;20489;-76
2022/04/15 00:42:19;;;;;;;112.27;18.30;;;;;;;;;;5073831;28;20837;-74
2022/04/15 00:44:48;;;;;;;34.60;11.60;;;12.10;90.50;;;;;;5074517;28;20485;-74
2022/04/15 00:47:23;;;;;;;118.77;18.60;;;12.20;90.40;;;;;;5071680;28;20541;-74
2022/04/15 00:49:50;;;;;;;17.63;8.83;;;12.20;90.70;;;;;;5066901;28;20482;-74
2022/04/15 00:52:19;;;;;;;36.00;13.50;;;;;;;;;;5068521;28;20474;-73
2022/04/15 00:54:52;;;;;;;19.90;8.87;;;12.10;90.70;;;;;;5069099;28;20498;-75
2022/04/15 00:57:25;;;;;;;57.10;16.27;;;12.00;90.80;;;;;;5074758;28;20867;-75
2022/04/15 00:59:54;;;;;;;16.33;8.50;;;11.80;90.80;;;;;;5070157;28;20488;-75
2022/04/15 01:02:24;;;;;;;23.93;12.10;;;11.60;90.90;;;;;;5075857;28;20485;-74
2022/04/15 01:04:53;;;;;;;8.93;8.00;;;11.50;91.30;;;;;;5073020;28;20498;-75
2022/04/15 01:07:26;;;;;;;19.93;12.50;;;11.50;91.60;;;;;;5065166;28;20493;-76
2022/04/15 01:09:54;;;;;;;14.10;9.17;;;11.50;91.60;;;;;;5075295;28;20484;-75
2022/04/15 01:12:23;;;;;;;15.60;9.53;;;12.20;91.80;;;;;;5077234;28;20489;-76
2022/04/15 01:14:50;;;;;;;11.13;6.83;;;11.30;91.10;;;;;;5072614;28;20495;-75
2022/04/15 01:17:17;;;;;;;10.60;8.80;;;11.30;91.40;;;;;;5077789;28;20471;-74
2022/04/15 01:19:45;;;;;;;10.30;8.40;;;11.20;92.50;;;;;;5074367;28;21684;-76
2022/04/15 01:22:14;;;;;;;48.60;14.13;;;;;;;;;;5075355;28;20992;-75
2022/04/15 01:24:43;;;;;;;17.73;9.73;;;11.00;92.30;;;;;;5072044;28;20488;-76
2022/04/15 01:27:10;;;;;;;27.03;12.13;;;11.10;92.30;;;;;;5071365;28;20594;-74
2022/04/15 01:29:38;;;;;;;18.20;11.10;;;11.00;92.50;;;;;;5066874;28;21054;-74
2022/04/15 01:32:05;;;;;;;64.43;11.70;;;;;;;;;;5077915;28;20513;-74
2022/04/15 01:34:32;;;;;;;14.17;8.13;;;11.20;91.20;;;;;;5072083;28;20486;-75
2022/04/15 01:37:00;;;;;;;11.40;8.63;;;11.20;91.30;;;;;;5074463;28;20482;-75
2022/04/15 01:39:28;;;;;;;16.30;11.50;;;11.10;91.70;;;;;;5074014;28;20489;-75
2022/04/15 01:41:57;;;;;;;9.77;7.23;;;11.10;92.00;;;;;;5076868;28;20996;-75
2022/04/15 01:44:24;;;;;;;12.47;10.80;;;11.00;91.40;;;;;;5070856;28;20477;-75
2022/04/15 01:46:51;;;;;;;13.87;8.83;;;10.90;91.40;;;;;;5080125;28;20499;-75
2022/04/15 01:49:18;;;;;;;16.30;10.70;;;10.70;91.10;;;;;;5067349;28;20484;-76
2022/04/15 01:51:44;;;;;;;9.30;6.73;;;10.60;91.80;;;;;;5090968;28;20484;-75
2022/04/15 01:54:11;;;;;;;29.30;10.63;;;;;;;;;;5071794;28;20493;-76
2022/04/15 01:56:39;;;;;;;32.67;11.00;;;10.20;91.90;;;;;;5072561;28;20505;-75
2022/04/15 01:59:09;;;;;;;41.53;10.90;;;;;;;;;;5073957;28;21007;-75
2022/04/15 02:01:36;;;;;;;14.37;9.93;;;10.00;92.90;;;;;;5074175;28;20533;-75
2022/04/15 02:04:03;;;;;;;14.37;9.50;;;10.00;93.70;;;;;;5079598;28;20488;-75
2022/04/15 02:06:30;;;;;;;47.20;13.03;;;14.20;96.30;;;;;;5073691;28;20488;-76
2022/04/15 02:08:56;;;;;;;15.93;9.87;;;9.90;95.20;;;;;;5066268;28;20495;-74
2022/04/15 02:11:23;;;;;;;11.40;9.33;;;9.90;95.50;;;;;;5070275;28;20507;-76
2022/04/15 02:13:50;;;;;;;17.07;9.23;;;10.10;94.50;;;;;;5075273;28;20473;-75
2022/04/15 02:16:18;;;;;;;25.33;12.13;;;10.20;94.00;;;;;;5078334;28;21298;-74
2022/04/15 02:18:45;;;;;;;8.33;6.73;;;10.30;92.40;;;;;;5068399;28;20483;-75
2022/04/15 02:21:11;;;;;;;33.63;11.40;;;10.30;92.60;;;;;;5067979;28;20488;-76
2022/04/15 02:23:38;;;;;;;13.33;8.30;;;10.40;92.20;;;;;;5069727;28;20707;-76
2022/04/15 02:26:05;;;;;;;30.07;11.47;;;10.40;91.50;;;;;;5079677;28;20491;-76
2022/04/15 02:28:32;;;;;;;20.03;9.90;;;10.40;91.70;;;;;;5073371;28;20484;-76
2022/04/15 02:30:59;;;;;;;15.03;8.20;;;10.30;91.50;;;;;;5075254;28;20485;-75
2022/04/15 02:33:27;;;;;;;23.27;9.63;;;10.30;91.30;;;;;;5062361;28;20486;-76
2022/04/15 02:35:55;;;;;;;15.27;8.80;;;;;;;;;;5074988;28;20484;-76
2022/04/15 02:38:22;;;;;;;12.97;8.60;;;10.30;91.20;;;;;;5068228;28;21155;-76
2022/04/15 02:40:48;;;;;;;12.63;6.73;;;10.30;91.40;;;;;;5072816;28;20483;-77
2022/04/15 02:43:16;;;;;;;9.93;8.73;;;10.30;91.10;;;;;;5074372;28;20567;-77
2022/04/15 02:45:44;;;;;;;15.33;10.43;;;10.30;91.60;;;;;;5065614;28;21150;-75
2022/04/15 02:48:11;;;;;;;21.50;11.30;;;10.20;91.40;;;;;;5073854;28;20719;-76
2022/04/15 02:50:40;;;;;;;9.63;7.63;;;10.10;91.30;;;;;;5076751;28;20945;-74
2022/04/15 02:53:07;;;;;;;17.27;8.93;;;10.10;91.10;;;;;;5075372;28;20509;-75
2022/04/15 02:55:33;;;;;;;21.77;9.93;;;10.00;90.90;;;;;;5074305;28;20490;-75
2022/04/15 02:58:00;;;;;;;11.37;6.90;;;10.00;90.80;;;;;;5075193;28;20849;-76
2022/04/15 03:00:27;;;;;;;10.10;7.73;;;9.90;91.30;;;;;;5068202;28;20483;-76
2022/04/15 03:02:54;;;;;;;22.63;8.13;;;;;;;;;;5067115;28;20478;-76
2022/04/15 03:05:22;;;;;;;40.43;14.80;;;9.80;91.40;;;;;;5074331;28;20583;-75
2022/04/15 03:07:50;;;;;;;22.60;9.80;;;9.80;91.50;;;;;;5077844;28;20475;-75
2022/04/15 03:10:17;;;;;;;44.43;13.30;;;9.80;91.50;;;;;;5074912;28;20466;-75
2022/04/15 03:12:44;;;;;;;20.37;9.13;;;9.80;91.40;;;;;;5070883;28;20900;-78
2022/04/15 03:15:11;;;;;;;48.07;14.10;;;9.90;91.70;;;;;;5068077;28;21060;-76
2022/04/15 03:17:38;;;;;;;17.03;8.23;;;9.80;91.70;;;;;;5069818;28;20540;-75
2022/04/15 03:20:06;;;;;;;43.20;11.90;;;9.60;91.10;;;;;;5061766;28;20479;-79
2022/04/15 03:22:36;;;;;;;19.90;10.43;;;9.60;91.30;;;;;;5065023;28;20944;-75
2022/04/15 03:25:05;;;;;;;35.07;10.97;;;9.50;91.90;;;;;;5065388;28;20499;-75
2022/04/15 03:27:33;;;;;;;20.67;9.20;;;9.50;92.00;;;;;;5071530;28;20567;-75
2022/04/15 03:30:00;;;;;;;33.97;10.70;;;9.40;91.70;;;;;;5073287;28;20578;-79
2022/04/15 03:32:27;;;;;;;32.00;10.50;;;;;;;;;;5079160;28;20484;-75
2022/04/15 03:34:54;;;;;;;21.80;8.77;;;;;;;;;;5076777;28;20996;-77
2022/04/15 03:37:22;;;;;;;55.13;14.33;;;9.00;91.90;;;;;;5070758;28;20958;-75
2022/04/15 03:39:49;;;;;;;35.83;10.20;;;9.00;91.90;;;;;;5072424;28;20844;-75
2022/04/15 03:42:17;;;;;;;78.27;18.33;;;8.90;91.90;;;;;;5079600;28;20487;-76
2022/04/15 03:44:44;;;;;;;24.73;8.70;;;;;;;;;;5067946;28;20484;-75
2022/04/15 03:47:11;;;;;;;15.77;10.33;;;9.10;91.70;;;;;;5074686;28;21025;-76
2022/04/15 03:49:38;;;;;;;17.93;9.83;;;9.10;92.00;;;;;;5072553;28;20489;-76
2022/04/15 03:52:06;;;;;;;8.70;7.30;;;9.10;92.20;;;;;;5078316;28;20903;-74
2022/04/15 03:54:34;;;;;;;14.73;9.03;;;9.20;92.00;;;;;;5076141;28;20484;-75
2022/04/15 03:57:01;;;;;;;35.37;9.10;;;;;;;;;;5072972;28;20480;-76
2022/04/15 03:59:31;;;;;;;20.27;10.17;;;8.30;91.80;;;;;;5087671;28;20477;-75
2022/04/15 04:01:58;;;;;;;13.20;8.80;;;9.20;92.30;;;;;;5074589;28;20555;-76
2022/04/15 04:04:24;;;;;;;10.20;7.50;;;9.20;92.10;;;;;;5064409;28;20614;-74
2022/04/15 04:06:52;;;;;;;9.50;7.20;;;9.20;92.00;;;;;;5076431;28;20482;-77
2022/04/15 04:09:19;;;;;;;12.90;8.77;;;9.20;92.40;;;;;;5070538;28;20476;-75
2022/04/15 04:11:47;;;;;;;7.03;6.33;;;9.20;92.30;;;;;;5074259;28;20503;-75
2022/04/15 04:14:15;;;;;;;10.27;6.93;;;9.20;92.40;;;;;;5068978;28;20563;-75
2022/04/15 04:16:43;;;;;;;42.23;10.70;;;9.30;92.20;;;;;;5070873;28;20489;-76
2022/04/15 04:19:11;;;;;;;50.77;12.73;;;;;;;;;;5071323;28;20490;-75
2022/04/15 04:21:38;;;;;;;28.20;9.20;;;9.30;91.90;;;;;;5075393;28;20492;-74
2022/04/15 04:24:06;;;;;;;30.93;9.57;;;9.30;91.60;;;;;;5068715;28;20586;-76
2022/04/15 04:26:32;;;;;;;35.93;10.50;;;9.30;91.90;;;;;;5076917;28;20473;-76
2022/04/15 04:28:59;;;;;;;10.57;7.80;;;9.30;91.50;;;;;;5078492;28;20487;-74
2022/04/15 04:31:26;;;;;;;10.97;7.70;;;9.30;91.70;;;;;;5059655;28;20480;-76
2022/04/15 04:33:54;;;;;;;15.83;8.07;;;;;;;;;;5075367;28;20467;-77
2022/04/15 04:36:22;;;;;;;8.90;7.17;;;9.30;91.60;;;;;;5070496;28;21222;-74
2022/04/15 04:38:49;;;;;;;7.90;7.00;;;9.40;91.80;;;;;;5077549;28;20472;-76
2022/04/15 04:41:15;;;;;;;40.83;11.53;;;9.20;91.50;;;;;;5074850;28;20492;-76
2022/04/15 04:43:42;;;;;;;29.27;9.13;;;9.20;91.50;;;;;;5074888;28;21013;-77
2022/04/15 04:46:09;;;;;;;11.00;9.83;;;9.10;91.50;;;;;;5070191;28;20477;-77
2022/04/15 04:48:36;;;;;;;20.37;8.90;;;9.10;91.90;;;;;;5073566;28;20489;-75
2022/04/15 04:51:04;;;;;;;24.87;9.27;;;9.00;91.70;;;;;;5070055;28;20516;-77
2022/04/15 04:53:31;;;;;;;47.00;10.83;;;9.10;91.90;;;;;;5078883;28;20484;-76
2022/04/15 04:55:57;;;;;;;27.40;9.80;;;9.20;91.90;;;;;;5078162;28;20482;-78
2022/04/15 04:58:24;;;;;;;8.17;7.10;;;9.20;91.90;;;;;;5076698;28;20483;-76
2022/04/15 05:00:51;;;;;;;36.23;9.87;;;;;;;;;;5076680;28;20993;-77
2022/04/15 05:03:18;;;;;;;86.20;18.10;;;9.30;92.10;;;;;;5075808;28;20483;-76
2022/04/15 05:05:46;;;;;;;35.07;11.67;;;9.30;92.10;;;;;;5072842;28;20487;-76
2022/04/15 05:08:14;;;;;;;33.03;11.00;;;10.20;92.10;;;;;;5077139;28;20488;-77
2022/04/15 05:10:41;;;;;;;10.47;8.83;;;9.30;92.50;;;;;;5070013;28;20481;-77
2022/04/15 05:13:07;;;;;;;28.30;10.40;;;9.30;92.70;;;;;;5080628;28;20490;-77
2022/04/15 05:15:34;;;;;;;13.90;9.73;;;9.30;92.70;;;;;;5068546;28;20495;-76
2022/04/15 05:18:01;;;;;;;11.00;6.83;;;9.30;92.50;;;;;;5079445;28;20496;-78
2022/04/15 05:20:29;;;;;;;15.27;8.30;;;9.20;92.50;;;;;;5073413;28;20993;-77
2022/04/15 05:22:56;;;;;;;8.40;7.50;;;9.10;92.80;;;;;;5080602;28;20973;-77
2022/04/15 05:25:24;;;;;;;36.00;11.37;;;9.10;92.90;;;;;;5075929;28;20478;-76
2022/04/15 05:27:52;;;;;;;16.73;8.93;;;9.20;93.20;;;;;;5079595;28;20486;-77
2022/04/15 05:30:19;;;;;;;72.40;16.33;;;9.30;93.10;;;;;;5070542;28;20482;-78
2022/04/15 05:32:46;;;;;;;21.50;10.10;;;9.30;92.90;;;;;;5067831;28;20480;-77
2022/04/15 05:35:13;;;;;;;51.80;17.33;;;9.30;93.20;;;;;;5077869;28;20480;-78
2022/04/15 05:37:39;;;;;;;26.13;11.80;;;9.40;93.20;;;;;;5075842;28;20480;-77
2022/04/15 05:40:07;;;;;;;26.73;11.33;;;9.50;93.30;;;;;;5076023;28;20485;-78
2022/04/15 05:42:36;;;;;;;23.70;12.93;;;9.40;93.50;;;;;;5068633;28;20969;-77
2022/04/15 05:45:04;;;;;;;33.70;12.87;;;9.50;94.10;;;;;;5071585;28;20891;-77
2022/04/15 05:47:30;;;;;;;35.10;12.97;;;9.40;94.20;;;;;;5076459;28;20480;-77
2022/04/15 05:49:58;;;;;;;38.10;11.27;;;;;;;;;;5069090;28;20479;-77
2022/04/15 05:52:25;;;;;;;79.00;14.93;;;;;;;;;;5069821;28;20480;-76
2022/04/15 05:54:51;;;;;;;32.77;10.63;;;9.80;93.60;;;;;;5072616;28;20679;-76
2022/04/15 05:57:19;;;;;;;36.67;14.13;;;9.90;93.90;;;;;;5065165;28;20831;-77
2022/04/15 05:59:47;;;;;;;30.30;11.57;;;9.90;94.00;;;;;;5083129;28;20495;-76
2022/04/15 06:02:14;;;;;;;32.33;14.67;;;9.90;94.10;;;;;;5081899;28;20545;-77
2022/04/15 06:04:41;;;;;;;25.10;11.77;;;10.00;94.10;;;;;;5070253;28;20984;-77
2022/04/15 06:07:07;;;;;;;18.27;8.57;;;10.10;94.00;;;;;;5066680;28;20821;-77
2022/04/15 06:09:34;;;;;;;57.20;15.43;;;10.30;94.00;;;;;;5065048;28;20485;-77
2022/04/15 06:12:01;;;;;;;22.97;8.30;;;10.50;93.40;;;;;;5084023;28;20954;-77
2022/04/15 06:14:33;;;;;;;33.27;11.20;;;10.70;93.20;;;;;;5066314;28;21580;-78
2022/04/15 06:17:01;;;;;;;29.70;10.03;;;10.80;93.20;;;;;;5063368;28;20595;-78
2022/04/15 06:19:28;;;;;;;33.30;13.80;;;11.00;93.20;;;;;;5071785;28;20470;-78
2022/04/15 06:21:56;;;;;;;11.17;9.37;;;11.20;93.20;;;;;;5072408;28;20508;-78
2022/04/15 06:24:22;;;;;;;17.10;9.60;;;11.30;93.60;;;;;;5074784;28;20848;-79
2022/04/15 06:26:50;;;;;;;13.30;11.30;;;11.40;93.40;;;;;;5081608;28;20480;-78
2022/04/15 06:29:17;;;;;;;12.33;9.10;;;11.40;93.70;;;;;;5070346;28;20625;-78
2022/04/15 06:31:44;;;;;;;10.50;7.97;;;11.50;94.10;;;;;;5072655;28;20496;-79
2022/04/15 06:34:12;;;;;;;17.77;10.40;;;11.80;93.90;;;;;;5074906;28;20477;-80
2022/04/15 06:36:39;;;;;;;11.87;9.47;;;;;;;;;;5075648;28;20501;-79
2022/04/15 06:39:05;;;;;;;16.80;10.83;;;12.40;93.20;;;;;;5075957;28;20473;-76
2022/04/15 06:41:34;;;;;;;15.80;10.80;;;12.60;93.10;;;;;;5071390;28;20478;-78
2022/04/15 06:44:00;;;;;;;16.80;11.03;;;12.70;92.80;;;;;;5067448;28;20971;-77
2022/04/15 06:46:27;;;;;;;19.20;12.00;;;12.70;93.10;;;;;;5069498;28;20859;-78
2022/04/15 06:48:55;;;;;;;18.83;12.57;;;13.00;93.00;;;;;;5080078;28;20560;-79
2022/04/15 06:51:25;;;;;;;16.00;12.40;;;12.90;93.20;;;;;;5074878;28;20496;-78
2022/04/15 06:53:52;;;;;;;15.00;10.77;;;12.90;93.30;;;;;;5077179;28;20473;-79
2022/04/15 06:56:18;;;;;;;45.60;15.30;;;13.10;93.30;;;;;;5080040;28;20489;-78
2022/04/15 06:58:48;;;;;;;15.10;11.20;;;13.10;93.60;;;;;;5076408;28;20485;-79
2022/04/15 07:01:19;;;;;;;14.03;12.07;;;13.20;93.70;;;;;;5069704;28;20544;-79
2022/04/15 07:03:46;;;;;;;13.23;11.83;;;13.30;94.00;;;;;;5076948;28;20481;-81
2022/04/15 07:06:13;;;;;;;19.87;15.67;;;13.60;94.20;;;;;;5079999;28;20496;-78
2022/04/15 07:08:41;;;;;;;19.47;13.47;;;13.90;94.50;;;;;;5080898;28;20489;-79
2022/04/15 07:11:07;;;;;;;17.40;15.57;;;14.20;94.20;;;;;;5073295;28;20486;-79
2022/04/15 07:13:36;;;;;;;20.57;16.17;;;14.50;93.90;;;;;;5072003;28;20475;-80
2022/04/15 07:16:03;;;;;;;26.60;14.47;;;14.70;93.70;;;;;;5063887;28;20473;-79
2022/04/15 07:18:30;;;;;;;18.93;14.67;;;14.80;93.60;;;;;;5078417;28;20465;-79
2022/04/15 07:20:57;;;;;;;28.03;15.90;;;14.90;93.80;;;;;;5076146;28;20488;-79
2022/04/15 07:23:25;;;;;;;35.70;18.33;;;15.10;94.00;;;;;;5072815;28;20481;-80
2022/04/15 07:25:53;;;;;;;33.80;15.93;;;15.20;94.20;;;;;;5078031;28;20510;-80
2022/04/15 07:28:19;;;;;;;25.77;17.40;;;15.40;94.10;;;;;;5065668;28;21245;-78
2022/04/15 07:30:47;;;;;;;21.60;15.13;;;15.60;94.30;;;;;;5075490;28;20484;-80
2022/04/15 07:33:15;;;;;;;29.33;19.33;;;15.80;94.00;;;;;;5070543;28;20515;-81
2022/04/15 07:35:41;;;;;;;24.80;15.13;;;16.10;94.40;;;;;;5075130;28;20597;-79
2022/04/15 07:38:08;;;;;;;25.80;17.17;;;16.50;94.40;;;;;;5070984;28;20485;-78
2022/04/15 07:40:35;;;;;;;17.40;15.03;;;17.00;93.70;;;;;;5084946;28;20863;-77
2022/04/15 07:43:04;;;;;;;22.57;17.07;;;17.20;94.00;;;;;;5080676;28;20476;-78
2022/04/15 07:45:33;;;;;;;27.37;19.57;;;17.60;93.30;;;;;;5083495;28;20488;-81
2022/04/15 07:48:00;;;;;;;25.43;20.00;;;17.90;92.80;;;;;;5075262;28;20979;-79
2022/04/15 07:50:31;;;;;;;31.80;20.50;;;18.20;92.40;;;;;;5073835;28;20881;-84
2022/04/15 07:52:58;;;;;;;26.47;20.70;;;18.50;91.70;;;;;;5075915;28;20489;-82
2022/04/15 07:55:25;;;;;;;34.93;23.07;;;18.80;91.60;;;;;;5077875;28;20474;-79
2022/04/15 07:57:53;;;;;;;28.30;22.93;;;19.00;91.40;;;;;;5074522;28;20488;-77
2022/04/15 08:00:22;;;;;;;37.67;25.40;;;19.30;91.00;;;;;;5066158;28;20481;-81
2022/04/15 08:02:49;;;;;;;26.93;20.80;;;19.50;91.10;;;;;;5071427;28;20491;-78
2022/04/15 08:05:16;;;;;;;43.67;25.10;;;19.70;91.00;;;;;;5072379;28;20507;-79
2022/04/15 08:07:43;;;;;;;30.77;24.47;;;19.90;90.40;;;;;;5072329;28;20486;-80
2022/04/15 08:10:10;;;;;;;33.67;24.70;;;20.00;90.50;;;;;;5072121;28;20478;-80
2022/04/15 08:12:38;;;;;;;26.83;22.33;;;20.20;90.30;;;;;;5059733;28;20991;-78
2022/04/15 08:15:05;;;;;;;29.77;23.50;;;20.40;90.50;;;;;;5074498;28;20502;-78
2022/04/15 08:17:34;;;;;;;30.97;23.70;;;20.50;90.00;;;;;;5083324;28;20482;-79
2022/04/15 08:20:03;;;;;;;34.83;26.00;;;20.60;90.00;;;;;;5075359;28;20492;-81
2022/04/15 08:22:34;;;;;;;34.23;27.03;;;20.80;90.10;;;;;;5082221;28;20487;-81
2022/04/15 08:25:01;;;;;;;35.47;27.50;;;20.90;89.30;;;;;;5077089;28;20899;-80
2022/04/15 08:27:27;;;;;;;34.03;27.40;;;21.00;88.20;;;;;;5075372;28;20477;-78
2022/04/15 08:29:55;;;;;;;39.23;29.03;;;21.20;88.00;;;;;;5074403;28;20487;-78
2022/04/15 08:32:22;;;;;;;36.63;28.83;;;21.30;85.60;;;;;;5068438;28;20481;-77
2022/04/15 08:34:51;;;;;;;40.47;30.30;;;21.20;86.20;;;;;;5070935;28;20476;-80
2022/04/15 08:37:19;;;;;;;35.47;29.60;;;21.10;85.80;;;;;;5072804;28;20823;-78
2022/04/15 08:39:46;;;;;;;42.63;30.50;;;21.10;86.60;;;;;;5073105;28;20517;-78
2022/04/15 08:42:13;;;;;;;38.93;29.23;;;21.00;85.60;;;;;;5068888;28;20530;-79
2022/04/15 08:44:43;;;;;;;36.10;29.90;;;21.00;86.60;;;;;;5067438;28;20829;-80
2022/04/15 08:47:11;;;;;;;38.30;29.60;;;21.10;86.30;;;;;;5065433;28;20488;-82
2022/04/15 08:49:38;;;;;;;37.23;29.23;;;21.20;86.40;;;;;;5068467;28;20568;-80
2022/04/15 08:52:08;;;;;;;43.27;29.90;;;21.40;86.70;;;;;;5073719;28;20449;-81
2022/04/15 08:54:36;;;;;;;33.50;28.57;;;21.70;86.80;;;;;;5072776;28;20471;-82
2022/04/15 08:57:03;;;;;;;33.80;27.83;;;21.90;86.70;;;;;;5071054;28;20958;-79
2022/04/15 08:59:30;;;;;;;36.23;27.00;;;22.10;86.70;;;;;;5077053;28;20818;-76
2022/04/15 09:01:57;;;;;;;32.80;29.20;;;22.30;83.60;;;;;;5077253;28;20497;-78
2022/04/15 09:04:24;;;;;;;36.17;28.63;;;22.50;84.40;;;;;;5079116;28;20483;-80
2022/04/15 09:06:55;;;;;;;39.80;28.10;;;22.60;83.70;;;;;;5068572;28;20493;-80
2022/04/15 09:09:29;;;;;;;37.40;28.83;;;22.80;84.20;;;;;;5077877;28;20476;-76
2022/04/15 09:11:58;;;;;;;36.83;28.70;;;23.00;83.60;;;;;;5074870;28;20490;-77
2022/04/15 09:14:25;;;;;;;42.30;29.43;;;23.00;81.90;;;;;;5066186;28;20724;-82
2022/04/15 09:16:53;;;;;;;40.50;27.87;;;23.00;80.70;;;;;;5071680;28;20482;-77
2022/04/15 09:19:21;;;;;;;30.40;24.70;;;22.90;80.70;;;;;;5077497;28;20885;-76
2022/04/15 09:21:52;;;;;;;41.67;28.87;;;22.90;80.50;;;;;;5083683;28;20484;-77
2022/04/15 09:24:28;;;;;;;43.70;29.50;;;22.80;79.70;;;;;;5075916;28;21005;-79
2022/04/15 09:26:55;;;;;;;33.53;28.77;;;22.80;79.90;;;;;;5072684;28;20888;-74
2022/04/15 09:29:24;;;;;;;38.90;28.10;;;22.70;81.20;;;;;;5067034;28;20476;-75
2022/04/15 09:31:55;;;;;;;36.67;27.57;;;22.70;80.00;;;;;;5075420;28;20513;-79
2022/04/15 09:34:22;;;;;;;35.70;27.77;;;22.70;79.20;;;;;;5075440;28;20485;-79
2022/04/15 09:36:50;;;;;;;30.67;26.50;;;22.80;80.30;;;;;;5072473;28;20978;-76
2022/04/15 09:39:17;;;;;;;33.80;27.53;;;22.90;81.30;;;;;;5065067;28;20482;-78
2022/04/15 09:41:50;;;;;;;32.17;25.90;;;23.00;81.70;;;;;;5066823;28;20478;-76
2022/04/15 09:44:17;;;;;;;37.27;29.00;;;23.10;79.00;;;;;;5080180;28;20686;-76
2022/04/15 09:46:45;;;;;;;35.57;28.80;;;23.10;79.90;;;;;;5080363;28;20461;-75
2022/04/15 09:49:13;;;;;;;34.17;27.70;;;23.30;81.20;;;;;;5074507;28;20481;-76
2022/04/15 09:51:43;;;;;;;34.60;28.87;;;23.40;80.00;;;;;;5074428;28;20575;-77
2022/04/15 09:54:11;;;;;;;32.47;28.27;;;23.70;78.40;;;;;;5061504;28;20507;-82
2022/04/15 09:56:42;;;;;;;30.63;23.87;;;23.80;77.00;;;;;;5079072;28;20511;-78
2022/04/15 09:59:12;;;;;;;31.93;24.80;;;23.90;78.20;;;;;;5076337;28;20968;-76
2022/04/15 10:01:44;;;;;;;41.10;26.93;;;24.00;78.20;;;;;;5063954;28;20688;-77
2022/04/15 10:04:12;;;;;;;29.30;23.90;;;24.10;78.30;;;;;;5074880;28;20820;-77
2022/04/15 10:06:40;;;;;;;23.93;21.13;;;24.10;76.30;;;;;;5073983;28;20489;-77
2022/04/15 10:09:11;;;;;;;25.13;21.13;;;24.10;77.40;;;;;;5074399;28;21217;-78
2022/04/15 10:11:40;;;;;;;25.53;20.60;;;24.00;74.50;;;;;;5061939;28;20485;-81
2022/04/15 10:14:09;;;;;;;22.97;19.63;;;24.00;75.50;;;;;;5074187;28;20473;-80
2022/04/15 10:16:40;;;;;;;21.03;18.70;;;24.10;75.60;;;;;;5079653;28;20482;-79
2022/04/15 10:19:08;;;;;;;22.20;18.10;;;24.10;75.00;;;;;;5070895;28;20467;-78
2022/04/15 10:21:37;;;;;;;22.73;19.47;;;24.10;74.50;;;;;;5073869;28;20490;-78
2022/04/15 10:24:07;;;;;;;21.93;19.10;;;24.30;75.50;;;;;;5074390;28;20460;-79
2022/04/15 10:26:35;;;;;;;22.27;19.93;;;24.30;72.90;;;;;;5065457;28;20582;-77
2022/04/15 10:29:04;;;;;;;22.80;19.40;;;24.40;72.50;;;;;;5069663;28;20517;-76
2022/04/15 10:31:40;;;;;;;20.63;18.53;;;24.50;72.70;;;;;;5064281;28;21214;-76
2022/04/15 10:34:12;;;;;;;22.37;17.60;;;24.40;70.10;;;;;;5076632;28;20482;-78
2022/04/15 10:36:45;;;;;;;23.87;19.40;;;24.30;71.10;;;;;;5069409;28;21094;-75
2022/04/15 10:39:20;;;;;;;22.43;19.37;;;24.20;72.60;;;;;;5073450;28;20508;-78
2022/04/15 10:42:01;;;;;;;22.80;18.60;;;24.20;71.10;;;;;;5049993;28;20483;-77
2022/04/15 10:44:33;;;;;;;25.03;19.80;;;24.00;73.10;;;;;;5074314;28;20479;-77
2022/04/15 10:47:29;;;;;;;21.90;16.67;;;24.10;74.10;;;;;;5083009;28;20489;-77
2022/04/15 10:50:03;;;;;;;20.43;17.47;;;24.10;72.50;;;;;;5073480;28;20505;-80
2022/04/15 10:52:30;;;;;;;21.50;16.90;;;24.30;71.20;;;;;;5078705;28;20470;-79
2022/04/15 10:54:59;;;;;;;17.03;14.60;;;24.10;71.90;;;;;;5073222;28;20851;-79
2022/04/15 10:57:33;;;;;;;17.50;15.70;;;24.30;73.40;;;;;;5075718;28;20494;-77
2022/04/15 11:02:51;;;;;;;23.93;17.13;;;24.50;73.90;;;;;;5077096;28;20524;-78
2022/04/15 11:05:52;;;;;;;17.90;16.00;;;24.40;71.30;;;;;;5064211;28;20506;-75
2022/04/15 11:08:20;;;;;;;20.13;15.43;;;24.10;69.00;;;;;;5074570;28;20768;-77
2022/04/15 11:11:03;;;;;;;16.40;13.03;;;24.10;70.60;;;;;;5064090;28;20478;-76
2022/04/15 11:13:58;;;;;;;20.73;15.53;;;24.00;69.70;;;;;;5077511;28;20485;-83
2022/04/15 11:16:43;;;;;;;13.50;12.03;;;23.40;68.30;;;;;;5063976;28;20828;-80
2022/04/15 11:19:15;;;;;;;19.30;15.27;;;23.60;75.90;;;;;;5069507;28;20478;-75
2022/04/15 11:21:41;;;;;;;15.43;13.87;;;23.80;71.10;;;;;;5071729;28;20488;-78
2022/04/15 11:24:10;;;;;;;17.03;13.27;;;24.00;72.40;;;;;;5069783;28;20477;-78
2022/04/15 11:26:39;;;;;;;11.33;10.07;;;24.10;70.90;;;;;;5082388;28;21043;-80
2022/04/15 11:29:07;;;;;;;14.33;11.33;;;24.40;69.50;;;;;;5073961;28;21261;-80
2022/04/15 11:31:37;;;;;;;14.03;11.50;;;24.50;67.50;;;;;;5076615;28;20924;-78
2022/04/15 11:34:06;;;;;;;17.17;13.40;;;24.80;72.40;;;;;;5069898;28;20499;-77
2022/04/15 11:36:36;;;;;;;12.70;11.23;;;24.60;68.30;;;;;;5059239;28;20462;-77
2022/04/15 11:39:05;;;;;;;14.70;11.93;;;24.20;68.60;;;;;;5077212;28;20453;-77
2022/04/15 11:41:33;;;;;;;14.13;11.90;;;23.90;68.80;;;;;;5073389;28;20466;-75
2022/04/15 11:44:01;;;;;;;13.43;12.03;;;23.50;68.80;;;;;;5081236;28;20505;-75
2022/04/15 11:46:38;;;;;;;14.33;11.37;;;23.30;69.20;;;;;;5075373;28;20486;-76
2022/04/15 11:49:04;;;;;;;19.80;10.97;;;23.30;70.80;;;;;;5075467;28;20952;-76
2022/04/15 11:51:31;;;;;;;12.73;10.23;;;23.50;73.40;;;;;;5070257;28;20453;-78
2022/04/15 11:53:59;;;;;;;11.27;9.20;;;23.80;71.60;;;;;;5078790;28;20452;-76
2022/04/15 11:56:29;;;;;;;10.83;9.83;;;24.00;70.10;;;;;;5076843;28;20473;-79
2022/04/15 11:58:57;;;;;;;12.03;9.40;;;24.30;70.60;;;;;;5073837;28;20485;-77
2022/04/15 12:01:29;;;;;;;11.80;9.50;;;24.70;70.20;;;;;;5070128;28;20532;-79
2022/04/15 12:03:56;;;;;;;12.40;9.17;;;24.70;65.60;;;;;;5069510;28;20526;-79
2022/04/15 12:06:23;;;;;;;12.67;9.70;;;24.90;71.90;;;;;;5059799;28;21030;-79
2022/04/15 12:08:51;;;;;;;9.23;8.33;;;25.10;69.30;;;;;;5069119;28;20530;-79
2022/04/15 12:11:22;;;;;;;9.80;7.60;;;25.00;69.10;;;;;;5053442;28;20474;-77
2022/04/15 12:13:57;;;;;;;12.17;9.50;;;25.00;69.00;;;;;;5069944;28;20499;-76
2022/04/15 12:16:24;;;;;;;12.50;9.50;;;24.90;67.60;;;;;;5050425;28;20488;-74
2022/04/15 12:18:56;;;;;;;9.60;8.60;;;24.70;66.90;;;;;;5061492;28;20543;-77
2022/04/15 12:21:25;;;;;;;11.10;8.57;;;24.70;68.60;;;;;;5067590;28;20473;-79
2022/04/15 12:24:07;;;;;;;9.27;8.20;;;24.90;70.10;;;;;;5065173;28;20463;-79
2022/04/15 12:26:43;;;;;;;10.80;8.50;;;25.20;71.10;;;;;;5069359;28;20451;-76
2022/04/15 12:31:55;;;;;;;9.93;7.30;;;25.60;67.40;;;;;;5051401;28;20487;-77
2022/04/15 12:34:32;;;;;;;10.93;7.43;;;25.40;67.10;;;;;;5071449;28;20953;-78
2022/04/15 12:36:59;;;;;;;8.23;7.47;;;25.30;67.50;;;;;;5068602;28;20822;-78
2022/04/15 12:39:25;;;;;;;9.37;7.87;;;25.40;67.40;;;;;;5066631;28;20447;-81
2022/04/15 12:41:54;;;;;;;9.33;7.13;;;25.50;66.10;;;;;;5068849;28;20835;-76
2022/04/15 12:44:27;;;;;;;10.53;8.20;;;25.00;64.50;;;;;;5069698;28;20445;-81
2022/04/15 12:46:58;;;;;;;7.30;6.60;;;24.90;67.70;;;;;;5052671;28;20467;-80
2022/04/15 12:49:27;;;;;;;10.10;7.83;;;24.90;67.70;;;;;;5064950;28;20859;-78
2022/04/15 12:52:06;;;;;;;9.00;7.10;;;24.70;65.40;;;;;;5068995;28;20456;-78
2022/04/15 12:54:33;;;;;;;10.43;8.80;;;24.90;66.00;;;;;;5068355;28;20893;-78